Time;durP1;ratioP1;P1;durP2;ratioP2;P2;SDS_P1;SDS_P2;PMS_P1;PMS_P2;Temp;Humidity;BMP_temperature;BMP_pressure;BME280_temperature;BME280_humidity;BME280_pressure;Samples;Min_cycle;Max_cycle;Signal;HPM_P1;HPM_P2
2022/12/26 00:00:36;;;;;;;21.88;14.32;;;;;;;;;;4950207;28;20074;-74
2022/12/26 00:03:01;;;;;;;11.60;10.10;;;;;;;;;;4941768;28;20086;-74
2022/12/26 00:05:27;;;;;;;8.82;8.23;;;;;;;;;;4943017;28;20039;-75
2022/12/26 00:07:52;;;;;;;8.55;7.85;;;;;;;;;;4940229;28;20046;-75
2022/12/26 00:10:18;;;;;;;8.30;7.70;;;;;;;;;;4939913;28;20146;-75
2022/12/26 00:12:44;;;;;;;8.20;7.60;;;;;;;;;;4942805;28;20035;-76
2022/12/26 00:15:09;;;;;;;7.65;7.15;;;;;;;;;;4944607;28;20043;-75
2022/12/26 00:17:35;;;;;;;8.20;7.50;;;;;;;;;;4944161;28;20054;-75
2022/12/26 00:20:00;;;;;;;8.52;7.93;;;;;;;;;;4944501;28;20043;-75
2022/12/26 00:22:26;;;;;;;8.30;7.75;;;;;;;;;;4952412;28;20038;-75
2022/12/26 00:24:52;;;;;;;8.50;7.90;;;;;;;;;;4940810;28;20051;-75
2022/12/26 00:27:17;;;;;;;8.75;8.13;;;;;;;;;;4942478;28;20153;-75
2022/12/26 00:29:43;;;;;;;7.97;7.43;;;;;;;;;;4942303;28;20063;-75
2022/12/26 00:32:08;;;;;;;8.05;7.40;;;;;;;;;;4945014;28;20129;-76
2022/12/26 00:34:34;;;;;;;7.82;7.32;;;;;;;;;;4941892;28;20035;-75
2022/12/26 00:36:59;;;;;;;8.10;7.50;;;;;;;;;;4944192;28;20047;-75
2022/12/26 00:39:25;;;;;;;7.88;7.28;;;;;;;;;;4944295;28;20479;-75
2022/12/26 00:41:50;;;;;;;7.88;7.28;;;;;;;;;;4943913;28;20039;-76
2022/12/26 00:44:16;;;;;;;7.82;7.32;;;;;;;;;;4942832;28;20034;-75
2022/12/26 00:46:41;;;;;;;8.60;8.00;;;;;;;;;;4944150;28;20043;-76
2022/12/26 00:49:07;;;;;;;8.13;7.53;;;;;;;;;;4943956;28;20593;-75
2022/12/26 00:51:32;;;;;;;7.68;7.10;;;;;;;;;;4945382;28;20042;-76
2022/12/26 00:53:58;;;;;;;8.15;7.50;;;;;;;;;;4940152;28;20109;-75
2022/12/26 00:56:23;;;;;;;7.60;7.10;;;;;;;;;;4944033;28;20089;-75
2022/12/26 00:58:49;;;;;;;8.77;8.15;;;;;;;;;;4944919;28;20050;-75
2022/12/26 01:01:21;;;;;;;7.68;7.18;;;;;;;;;;4944020;28;20767;-75
2022/12/26 01:03:47;;;;;;;7.80;6.97;;;;;;;;;;4943082;28;20023;-75
2022/12/26 01:06:14;;;;;;;8.32;7.70;;;;;;;;;;4943003;28;20043;-75
2022/12/26 01:08:40;;;;;;;8.63;7.93;;;;;;;;;;4943635;28;20035;-76
2022/12/26 01:11:09;;;;;;;8.23;7.43;;;;;;;;;;4943687;28;20534;-75
2022/12/26 01:13:35;;;;;;;9.00;8.10;;;;;;;;;;4942050;28;20031;-75
2022/12/26 01:16:01;;;;;;;8.38;7.65;;;;;;;;;;4942792;28;20045;-76
2022/12/26 01:18:27;;;;;;;9.55;8.85;;;;;;;;;;4944289;28;20039;-75
2022/12/26 01:20:58;;;;;;;8.63;7.88;;;;;;;;;;4942729;28;20086;-75
2022/12/26 01:23:23;;;;;;;9.02;8.13;;;;;;;;;;4942739;28;20390;-75
2022/12/26 01:25:49;;;;;;;8.73;8.00;;;;;;;;;;4941632;28;20047;-76
2022/12/26 01:28:14;;;;;;;9.07;8.27;;;;;;;;;;4942409;28;20042;-75
2022/12/26 01:30:40;;;;;;;8.63;7.93;;;;;;;;;;4942163;28;20520;-75
2022/12/26 01:33:05;;;;;;;8.90;8.20;;;;;;;;;;4940936;28;20054;-75
2022/12/26 01:35:31;;;;;;;8.27;7.68;;;;;;;;;;4939888;28;20467;-75
2022/12/26 01:37:57;;;;;;;8.63;7.78;;;;;;;;;;4939186;28;20510;-75
2022/12/26 01:40:23;;;;;;;8.75;8.15;;;;;;;;;;4940835;28;20047;-76
2022/12/26 01:42:48;;;;;;;8.75;8.15;;;;;;;;;;4942445;28;20031;-73
2022/12/26 01:45:22;;;;;;;8.70;8.07;;;;;;;;;;4939757;28;20522;-75
2022/12/26 01:47:59;;;;;;;8.38;7.72;;;;;;;;;;4938687;28;20063;-75
2022/12/26 01:50:31;;;;;;;8.77;8.18;;;;;;;;;;4946321;28;20089;-76
2022/12/26 01:53:02;;;;;;;8.40;7.82;;;;;;;;;;4939968;28;20046;-76
2022/12/26 01:55:30;;;;;;;8.55;7.97;;;;;;;;;;4942003;28;20058;-75
2022/12/26 01:58:03;;;;;;;7.93;7.30;;;;;;;;;;4949250;28;20064;-76
2022/12/26 02:00:30;;;;;;;8.98;8.30;;;;;;;;;;4945634;28;20031;-76
2022/12/26 02:05:41;;;;;;;11.30;9.23;;;;;;;;;;4940389;28;20513;-76
2022/12/26 02:08:10;;;;;;;9.63;8.73;;;;;;;;;;4947128;28;20035;-75
2022/12/26 02:10:48;;;;;;;9.43;8.60;;;;;;;;;;4943179;28;20039;-76
2022/12/26 02:13:16;;;;;;;8.88;8.05;;;;;;;;;;4941421;28;20117;-74
2022/12/26 02:15:41;;;;;;;9.27;8.48;;;;;;;;;;4950337;28;20034;-76
2022/12/26 02:18:07;;;;;;;9.45;8.73;;;;;;;;;;4947780;28;20414;-75
2022/12/26 02:20:45;;;;;;;10.90;9.82;;;;;;;;;;4946810;28;20069;-76
2022/12/26 02:23:49;;;;;;;9.97;9.07;;;;;;;;;;4945441;28;20035;-76
2022/12/26 02:26:33;;;;;;;8.63;7.82;;;;;;;;;;4944898;28;20109;-76
2022/12/26 02:29:20;;;;;;;9.00;8.30;;;;;;;;;;4940511;28;20041;-75
2022/12/26 02:32:06;;;;;;;8.73;7.93;;;;;;;;;;4941446;28;20035;-76
2022/12/26 02:34:52;;;;;;;9.23;8.55;;;;;;;;;;4946419;28;20055;-76
2022/12/26 02:37:29;;;;;;;8.65;7.95;;;;;;;;;;4945361;28;20043;-76
2022/12/26 02:40:30;;;;;;;8.80;8.10;;;;;;;;;;4947640;28;20125;-76
2022/12/26 02:42:59;;;;;;;8.55;7.95;;;;;;;;;;4946413;28;20478;-76
2022/12/26 02:49:04;;;;;;;8.57;7.93;;;;;;;;;;4945778;28;20042;-76
2022/12/26 03:15:20;;;;;;;7.75;7.25;;;;;;;;;;4950196;28;20035;-76
2022/12/26 03:17:52;;;;;;;7.63;7.05;;;;;;;;;;4953894;28;20694;-75
2022/12/26 03:20:23;;;;;;;7.88;7.30;;;;;;;;;;4950263;28;20114;-76
2022/12/26 03:22:59;;;;;;;7.43;6.93;;;;;;;;;;4949559;28;20039;-75
2022/12/26 03:28:22;;;;;;;7.53;7.03;;;;;;;;;;4954504;28;20494;-75
2022/12/26 03:30:47;;;;;;;8.05;7.45;;;;;;;;;;4953156;28;20035;-76
2022/12/26 03:36:10;;;;;;;7.78;7.07;;;;;;;;;;4951185;28;20490;-75
2022/12/26 03:38:50;;;;;;;7.45;6.85;;;;;;;;;;4949516;28;20112;-76
2022/12/26 04:19:50;;;;;;;7.68;7.10;;;;;;;;;;4937432;28;20105;-76
2022/12/26 04:45:49;;;;;;;8.07;7.30;;;;;;;;;;4950829;28;20043;-76
2022/12/26 04:50:59;;;;;;;8.07;7.32;;;;;;;;;;4945840;28;20475;-75
2022/12/26 04:53:25;;;;;;;7.47;6.90;;;;;;;;;;4954041;28;20087;-76
2022/12/26 04:55:51;;;;;;;7.63;7.07;;;;;;;;;;4949546;28;20050;-76
2022/12/26 04:58:16;;;;;;;7.75;7.03;;;;;;;;;;4951043;28;20086;-76
2022/12/26 05:00:42;;;;;;;8.05;6.93;;;;;;;;;;4949224;28;20046;-75
2022/12/26 05:11:30;;;;;;;7.78;7.28;;;;;;;;;;4952545;28;20033;-76
2022/12/26 05:13:57;;;;;;;8.40;7.70;;;;;;;;;;4944289;28;20113;-76
2022/12/26 05:30:25;;;;;;;7.50;6.90;;;;;;;;;;4951545;28;20108;-76
2022/12/26 05:35:35;;;;;;;8.25;7.65;;;;;;;;;;4949416;28;20554;-76
2022/12/26 05:38:02;;;;;;;8.07;7.47;;;;;;;;;;4948802;28;20035;-76
2022/12/26 05:40:27;;;;;;;8.18;7.57;;;;;;;;;;4945520;28;20109;-75
2022/12/26 05:42:53;;;;;;;7.90;7.30;;;;;;;;;;4950464;28;20562;-76
2022/12/26 05:45:19;;;;;;;8.20;7.60;;;;;;;;;;4954272;28;20039;-76
2022/12/26 05:47:44;;;;;;;9.38;8.65;;;;;;;;;;4954179;28;20034;-77
2022/12/26 05:50:10;;;;;;;9.55;8.48;;;;;;;;;;4950440;28;20070;-77
2022/12/26 05:52:35;;;;;;;8.75;8.05;;;;;;;;;;4950595;28;20042;-77
2022/12/26 05:55:01;;;;;;;8.48;7.80;;;;;;;;;;4952248;28;20039;-77
2022/12/26 05:57:26;;;;;;;8.25;7.68;;;;;;;;;;4955236;28;20041;-77
2022/12/26 05:59:52;;;;;;;8.07;7.30;;;;;;;;;;4952978;28;20042;-77
2022/12/26 06:02:17;;;;;;;8.55;7.88;;;;;;;;;;4953557;28;20031;-77
2022/12/26 06:04:43;;;;;;;8.45;7.78;;;;;;;;;;4951298;28;20473;-76
2022/12/26 06:07:08;;;;;;;8.40;7.60;;;;;;;;;;4953052;28;20562;-77
2022/12/26 06:09:34;;;;;;;8.10;7.50;;;;;;;;;;4955070;28;20510;-77
2022/12/26 06:11:59;;;;;;;8.40;7.72;;;;;;;;;;4950661;28;20122;-78
2022/12/26 06:14:25;;;;;;;8.40;7.68;;;;;;;;;;4953432;28;20031;-77
2022/12/26 06:16:51;;;;;;;8.52;7.93;;;;;;;;;;4954037;28;20459;-77
2022/12/26 06:19:17;;;;;;;8.00;7.50;;;;;;;;;;4955474;28;20117;-77
2022/12/26 06:21:42;;;;;;;8.02;7.43;;;;;;;;;;4949477;28;20035;-77
2022/12/26 06:24:08;;;;;;;8.00;7.30;;;;;;;;;;4951625;28;20050;-77
2022/12/26 06:26:33;;;;;;;8.27;7.57;;;;;;;;;;4952135;28;20041;-77
2022/12/26 06:28:59;;;;;;;8.65;8.05;;;;;;;;;;4951632;28;20027;-77
2022/12/26 06:31:24;;;;;;;8.20;7.60;;;;;;;;;;4950838;28;20058;-77
2022/12/26 06:33:54;;;;;;;8.00;7.40;;;;;;;;;;4953910;28;20035;-77
2022/12/26 06:36:21;;;;;;;8.68;8.07;;;;;;;;;;4951967;28;20491;-77
2022/12/26 06:38:47;;;;;;;10.52;9.25;;;;;;;;;;4951525;28;20118;-76
2022/12/26 06:41:15;;;;;;;11.20;9.75;;;;;;;;;;4950067;28;20636;-77
2022/12/26 06:43:41;;;;;;;10.80;9.15;;;;;;;;;;4951064;28;20034;-77
2022/12/26 06:46:11;;;;;;;8.63;8.00;;;;;;;;;;4951766;28;20031;-77
2022/12/26 06:48:38;;;;;;;8.98;8.18;;;;;;;;;;4953904;28;20062;-77
2022/12/26 06:51:13;;;;;;;8.82;7.93;;;;;;;;;;4952844;28;20554;-77
2022/12/26 06:53:38;;;;;;;7.57;7.07;;;;;;;;;;4947287;28;20043;-77
2022/12/26 06:56:12;;;;;;;9.27;8.55;;;;;;;;;;4950088;28;20570;-77
2022/12/26 06:58:38;;;;;;;8.15;7.55;;;;;;;;;;4949982;28;20035;-77
2022/12/26 07:01:09;;;;;;;7.80;7.30;;;;;;;;;;4951537;28;20027;-78
2022/12/26 07:03:35;;;;;;;8.18;7.47;;;;;;;;;;4953630;28;20101;-77
2022/12/26 07:06:30;;;;;;;12.55;10.25;;;;;;;;;;4949419;28;20134;-77
2022/12/26 07:08:58;;;;;;;15.50;11.85;;;;;;;;;;4949406;28;20089;-77
2022/12/26 07:11:27;;;;;;;12.23;10.50;;;;;;;;;;4951560;28;20071;-77
2022/12/26 07:13:53;;;;;;;11.02;9.93;;;;;;;;;;4954015;28;20039;-77
2022/12/26 07:16:19;;;;;;;10.18;8.23;;;;;;;;;;4950543;28;20050;-77
2022/12/26 07:18:44;;;;;;;8.45;7.65;;;;;;;;;;4952468;28;20066;-77
2022/12/26 07:21:12;;;;;;;7.60;7.10;;;;;;;;;;4953046;28;20082;-76
2022/12/26 07:23:38;;;;;;;8.00;7.20;;;;;;;;;;4956047;28;20030;-76
2022/12/26 07:26:05;;;;;;;8.57;7.68;;;;;;;;;;4955705;28;20035;-76
2022/12/26 07:28:31;;;;;;;7.82;7.22;;;;;;;;;;4948021;29;20047;-75
2022/12/26 07:30:59;;;;;;;9.38;7.30;;;;;;;;;;4958883;29;20107;-76
2022/12/26 07:33:26;;;;;;;7.10;6.50;;;;;;;;;;4962115;28;20027;-76
2022/12/26 07:35:52;;;;;;;8.50;7.70;;;;;;;;;;4942254;28;20081;-75
2022/12/26 07:38:18;;;;;;;8.48;7.78;;;;;;;;;;4954511;28;20039;-76
2022/12/26 07:40:44;;;;;;;7.30;6.70;;;;;;;;;;4982585;28;20035;-76
2022/12/26 07:43:10;;;;;;;7.30;6.80;;;;;;;;;;4944779;28;20027;-74
2022/12/26 07:45:36;;;;;;;7.80;7.20;;;;;;;;;;4967528;28;20032;-75
2022/12/26 07:48:02;;;;;;;7.90;7.30;;;;;;;;;;4951240;28;20038;-77
2022/12/26 07:50:28;;;;;;;8.23;7.60;;;;;;;;;;4931045;29;20062;-75
2022/12/26 07:52:54;;;;;;;8.02;7.32;;;;;;;;;;4968254;28;20027;-76
2022/12/26 07:55:21;;;;;;;7.32;6.82;;;;;;;;;;4971722;28;20069;-75
2022/12/26 07:57:51;;;;;;;8.80;8.15;;;;;;;;;;4954837;29;20031;-77
2022/12/26 08:00:18;;;;;;;9.40;8.60;;;;;;;;;;4971582;28;20039;-77
2022/12/26 08:02:47;;;;;;;9.20;8.50;;;;;;;;;;4969744;28;20023;-76
2022/12/26 08:05:13;;;;;;;8.70;8.00;;;;;;;;;;4950705;28;20051;-77
2022/12/26 08:07:39;;;;;;;8.45;7.85;;;;;;;;;;4926331;28;20047;-77
2022/12/26 08:10:05;;;;;;;8.70;7.90;;;;;;;;;;4939939;29;20074;-78
2022/12/26 08:12:32;;;;;;;9.38;8.68;;;;;;;;;;4954180;28;20288;-77
2022/12/26 08:14:58;;;;;;;10.20;9.15;;;;;;;;;;4939262;29;20087;-77
2022/12/26 08:17:26;;;;;;;9.48;8.77;;;;;;;;;;4938204;28;20041;-77
2022/12/26 08:19:52;;;;;;;8.70;7.90;;;;;;;;;;4936163;29;20075;-77
2022/12/26 08:22:18;;;;;;;10.43;8.82;;;;;;;;;;4949021;28;20113;-78
2022/12/26 08:24:45;;;;;;;7.95;7.45;;;;;;;;;;4964116;28;20031;-78
2022/12/26 08:27:11;;;;;;;9.75;8.63;;;;;;;;;;4931725;29;20047;-78
2022/12/26 08:29:37;;;;;;;8.98;8.07;;;;;;;;;;4935507;29;20659;-77
2022/12/26 08:32:03;;;;;;;9.45;8.65;;;;;;;;;;4945315;28;20089;-77
2022/12/26 08:34:34;;;;;;;11.45;10.32;;;;;;;;;;4930829;29;20098;-77
2022/12/26 08:36:59;;;;;;;19.13;10.93;;;;;;;;;;4947782;28;20043;-78
2022/12/26 08:39:25;;;;;;;9.32;8.63;;;;;;;;;;4950966;28;20531;-78
2022/12/26 08:41:50;;;;;;;13.75;10.70;;;;;;;;;;4944412;28;20027;-77
2022/12/26 08:44:16;;;;;;;10.95;9.85;;;;;;;;;;4946065;28;20114;-78
2022/12/26 08:46:42;;;;;;;11.45;10.25;;;;;;;;;;4947946;28;20038;-77
2022/12/26 08:49:08;;;;;;;10.45;9.45;;;;;;;;;;4946327;28;20031;-77
2022/12/26 08:51:34;;;;;;;9.82;9.02;;;;;;;;;;4949406;28;20398;-77
2022/12/26 08:54:00;;;;;;;10.55;9.60;;;;;;;;;;4945465;28;20032;-77
2022/12/26 08:56:26;;;;;;;10.05;9.00;;;;;;;;;;4941693;28;20118;-77
2022/12/26 08:58:52;;;;;;;10.10;9.30;;;;;;;;;;4947737;28;20248;-77
2022/12/26 09:01:24;;;;;;;11.68;10.60;;;;;;;;;;4948985;28;20031;-76
2022/12/26 09:03:56;;;;;;;12.50;11.27;;;;;;;;;;4945269;28;20595;-77
2022/12/26 09:06:22;;;;;;;14.60;13.02;;;;;;;;;;4949104;28;20131;-77
2022/12/26 09:08:48;;;;;;;12.48;11.30;;;;;;;;;;4951360;28;20031;-77
2022/12/26 09:11:19;;;;;;;11.57;9.52;;;;;;;;;;4945487;28;20489;-77
2022/12/26 09:13:46;;;;;;;10.82;9.73;;;;;;;;;;4944783;28;20487;-77
2022/12/26 09:16:14;;;;;;;10.30;9.48;;;;;;;;;;4950805;28;20050;-77
2022/12/26 09:18:40;;;;;;;10.80;9.32;;;;;;;;;;4950108;28;20046;-77
2022/12/26 09:21:07;;;;;;;10.57;9.55;;;;;;;;;;4947703;28;20118;-77
2022/12/26 09:23:34;;;;;;;9.40;8.50;;;;;;;;;;4947325;28;20421;-77
2022/12/26 09:26:07;;;;;;;9.60;8.80;;;;;;;;;;4950462;28;20071;-77
2022/12/26 09:28:34;;;;;;;10.73;9.73;;;;;;;;;;4949185;28;20050;-77
2022/12/26 09:31:01;;;;;;;11.25;9.05;;;;;;;;;;4946330;28;20046;-77
2022/12/26 09:33:28;;;;;;;9.80;8.90;;;;;;;;;;4946408;28;20483;-77
2022/12/26 09:35:54;;;;;;;12.10;9.85;;;;;;;;;;4949969;28;20035;-77
2022/12/26 09:38:19;;;;;;;10.88;9.90;;;;;;;;;;4946167;28;20086;-77
2022/12/26 09:41:16;;;;;;;10.35;9.45;;;;;;;;;;4949175;28;20666;-77
2022/12/26 09:43:59;;;;;;;10.68;9.68;;;;;;;;;;4949591;28;20035;-76
2022/12/26 09:46:33;;;;;;;11.02;9.93;;;;;;;;;;4945924;28;20558;-76
2022/12/26 09:49:16;;;;;;;10.32;9.35;;;;;;;;;;4946843;28;20042;-77
2022/12/26 09:51:48;;;;;;;11.65;8.95;;;;;;;;;;4949913;28;20443;-77
2022/12/26 09:54:33;;;;;;;9.98;9.02;;;;;;;;;;4949430;28;20063;-77
2022/12/26 09:57:02;;;;;;;10.18;9.27;;;;;;;;;;4945774;28;20121;-77
2022/12/26 09:59:31;;;;;;;9.38;8.57;;;;;;;;;;4950016;28;20101;-76
2022/12/26 10:01:56;;;;;;;9.93;9.02;;;;;;;;;;4958837;28;20431;-76
2022/12/26 10:04:27;;;;;;;9.73;8.77;;;;;;;;;;4964954;28;20039;-76
2022/12/26 10:07:23;;;;;;;9.52;8.73;;;;;;;;;;4951988;28;20122;-76
2022/12/26 10:10:07;;;;;;;10.82;9.10;;;;;;;;;;4951964;28;20107;-76
2022/12/26 10:12:59;;;;;;;13.20;9.73;;;;;;;;;;4948712;28;20410;-77
2022/12/26 10:15:33;;;;;;;11.65;10.15;;;;;;;;;;4947395;28;20035;-77
2022/12/26 10:18:05;;;;;;;12.32;9.75;;;;;;;;;;4950050;28;20122;-77
2022/12/26 10:21:02;;;;;;;14.05;11.95;;;;;;;;;;4945970;28;20038;-77
2022/12/26 10:23:39;;;;;;;13.57;12.18;;;;;;;;;;4945842;28;20081;-77
2022/12/26 10:26:14;;;;;;;14.25;11.70;;;;;;;;;;4949276;28;20297;-75
2022/12/26 10:28:42;;;;;;;15.40;11.77;;;;;;;;;;4947682;28;20045;-76
2022/12/26 10:31:17;;;;;;;14.60;12.23;;;;;;;;;;4952457;28;20043;-76
2022/12/26 10:33:53;;;;;;;16.27;11.85;;;;;;;;;;4927916;28;20031;-76
2022/12/26 10:36:41;;;;;;;17.83;12.13;;;;;;;;;;4943985;28;20039;-76
2022/12/26 10:39:17;;;;;;;14.65;11.27;;;;;;;;;;4947451;28;20055;-74
2022/12/26 10:41:46;;;;;;;12.68;11.38;;;;;;;;;;4953784;28;20031;-78
2022/12/26 10:44:13;;;;;;;;;;;;;;;;;;4952103;28;20045;-77
2022/12/26 10:47:05;;;;;;;12.55;11.25;;;;;;;;;;4953808;28;19930;-79
2022/12/26 10:49:31;;;;;;;11.02;10.02;;;;;;;;;;4954702;28;20102;-79
2022/12/26 10:52:00;;;;;;;13.05;10.30;;;;;;;;;;4953773;28;20042;-76
2022/12/26 10:54:28;;;;;;;10.98;9.93;;;;;;;;;;4951118;29;20053;-78
2022/12/26 10:56:55;;;;;;;11.38;10.10;;;;;;;;;;4949975;28;20661;-75
2022/12/26 10:59:28;;;;;;;11.27;10.18;;;;;;;;;;4948636;28;20054;-75
2022/12/26 11:02:11;;;;;;;12.18;10.93;;;;;;;;;;4949759;28;20045;-76
2022/12/26 11:04:37;;;;;;;11.98;10.90;;;;;;;;;;4949042;28;20057;-75
2022/12/26 11:07:09;;;;;;;12.20;10.98;;;;;;;;;;4960858;28;20597;-75
2022/12/26 11:09:39;;;;;;;12.10;11.00;;;;;;;;;;4955958;28;20045;-75
2022/12/26 11:12:23;;;;;;;12.57;11.30;;;;;;;;;;4952630;28;20031;-76
2022/12/26 11:14:55;;;;;;;11.40;10.30;;;;;;;;;;4956734;28;20030;-77
2022/12/26 11:17:27;;;;;;;12.93;11.50;;;;;;;;;;4960538;28;20031;-76
2022/12/26 11:20:14;;;;;;;11.02;9.82;;;;;;;;;;4961598;28;20515;-76
2022/12/26 11:22:45;;;;;;;13.60;10.25;;;;;;;;;;4956736;28;20110;-75
2022/12/26 11:25:26;;;;;;;13.20;11.25;;;;;;;;;;4956017;28;20127;-76
2022/12/26 11:27:55;;;;;;;11.98;10.82;;;;;;;;;;4948672;28;20581;-76
2022/12/26 11:30:36;;;;;;;12.30;10.65;;;;;;;;;;4944928;28;20053;-74
2022/12/26 11:33:20;;;;;;;12.48;10.25;;;;;;;;;;4946113;28;20051;-76
2022/12/26 11:36:11;;;;;;;17.83;11.07;;;;;;;;;;4952539;28;20031;-76
2022/12/26 11:38:47;;;;;;;12.38;11.10;;;;;;;;;;4947727;28;20427;-76
2022/12/26 11:41:30;;;;;;;11.27;10.15;;;;;;;;;;4949195;28;20043;-77
2022/12/26 11:44:04;;;;;;;12.80;11.35;;;;;;;;;;4952412;28;20547;-81
2022/12/26 11:46:41;;;;;;;11.68;10.48;;;;;;;;;;4950680;28;20035;-76
2022/12/26 11:49:19;;;;;;;11.25;10.15;;;;;;;;;;4952225;28;20167;-76
2022/12/26 11:51:47;;;;;;;10.90;9.82;;;;;;;;;;4949488;28;20114;-77
2022/12/26 11:54:34;;;;;;;11.23;10.13;;;;;;;;;;4948853;28;20426;-77
2022/12/26 11:57:13;;;;;;;11.30;10.15;;;;;;;;;;4955897;28;20035;-77
2022/12/26 11:59:39;;;;;;;10.68;9.77;;;;;;;;;;4959472;28;20118;-77
2022/12/26 12:02:22;;;;;;;11.10;9.30;;;;;;;;;;4951334;28;20129;-79
2022/12/26 12:04:50;;;;;;;10.05;9.25;;;;;;;;;;4954739;28;20166;-78
2022/12/26 12:07:47;;;;;;;10.25;9.23;;;;;;;;;;4951974;28;20097;-78
2022/12/26 12:10:33;;;;;;;11.80;9.45;;;;;;;;;;4950416;28;20054;-77
2022/12/26 12:13:07;;;;;;;10.52;9.40;;;;;;;;;;4950450;28;20035;-77
2022/12/26 12:16:03;;;;;;;11.38;9.38;;;;;;;;;;4969630;28;20467;-76
2022/12/26 12:18:53;;;;;;;9.90;9.10;;;;;;;;;;4955701;28;20039;-79
2022/12/26 12:21:28;;;;;;;9.70;8.90;;;;;;;;;;4947348;28;20043;-77
2022/12/26 12:24:27;;;;;;;10.15;9.15;;;;;;;;;;4955456;28;20460;-79
2022/12/26 12:27:20;;;;;;;9.50;8.77;;;;;;;;;;4951158;28;20175;-77
2022/12/26 12:30:16;;;;;;;10.25;9.32;;;;;;;;;;4943657;28;20063;-76
2022/12/26 12:32:57;;;;;;;9.30;8.43;;;;;;;;;;4953955;28;20548;-76
2022/12/26 12:35:38;;;;;;;10.90;9.63;;;;;;;;;;4949317;28;20047;-74
2022/12/26 12:38:28;;;;;;;9.60;8.65;;;;;;;;;;4948229;28;20043;-75
2022/12/26 12:41:13;;;;;;;11.63;9.05;;;;;;;;;;4946363;28;20130;-75
2022/12/26 12:43:48;;;;;;;9.82;8.65;;;;;;;;;;4949450;28;20479;-74
2022/12/26 12:46:38;;;;;;;9.85;9.05;;;;;;;;;;4947083;28;20053;-76
2022/12/26 12:49:11;;;;;;;9.60;8.70;;;;;;;;;;4948066;28;20050;-77
2022/12/26 12:51:49;;;;;;;7.97;7.38;;;;;;;;;;4951301;28;20063;-77
2022/12/26 12:54:39;;;;;;;7.40;6.90;;;;;;;;;;4959579;28;20122;-76
2022/12/26 12:57:14;;;;;;;7.78;7.28;;;;;;;;;;4945524;28;20633;-77
2022/12/26 13:00:04;;;;;;;7.75;7.15;;;;;;;;;;4948852;28;20031;-76
2022/12/26 13:02:46;;;;;;;8.25;7.60;;;;;;;;;;4967600;23;20043;-73
2022/12/26 13:05:27;;;;;;;8.48;7.88;;;;;;;;;;4944711;28;20042;-71
2022/12/26 13:08:00;;;;;;;7.97;7.38;;;;;;;;;;4946283;28;20157;-73
2022/12/26 13:10:34;;;;;;;7.88;7.38;;;;;;;;;;4943455;29;20042;-73
2022/12/26 13:13:24;;;;;;;6.97;6.57;;;;;;;;;;4947516;28;20039;-73
2022/12/26 13:15:52;;;;;;;;;;;;;;;;;;4948168;28;20670;-72
2022/12/26 13:18:22;;;;;;;8.05;7.38;;;;;;;;;;4947172;28;19921;-74
2022/12/26 13:20:55;;;;;;;7.93;7.43;;;;;;;;;;4941910;28;20031;-73
2022/12/26 13:26:25;;;;;;;7.15;6.68;;;;;;;;;;4960443;28;20051;-74
2022/12/26 13:29:30;;;;;;;7.45;6.97;;;;;;;;;;4945186;28;20187;-73
2022/12/26 13:31:58;;;;;;;7.60;7.10;;;;;;;;;;4961815;28;20035;-74
2022/12/26 13:34:23;;;;;;;7.18;6.70;;;;;;;;;;4964429;28;20027;-73
2022/12/26 13:36:57;;;;;;;7.40;6.93;;;;;;;;;;4962585;28;20052;-74
2022/12/26 13:39:25;;;;;;;7.30;6.90;;;;;;;;;;4958803;28;20069;-73
2022/12/26 13:44:41;;;;;;;8.18;7.68;;;;;;;;;;4957058;28;20110;-74
2022/12/26 13:47:33;;;;;;;8.43;7.85;;;;;;;;;;4958260;28;20122;-74
2022/12/26 13:50:36;;;;;;;8.15;7.65;;;;;;;;;;4944095;28;20607;-74
2022/12/26 13:53:03;;;;;;;7.95;7.45;;;;;;;;;;4955934;28;20046;-74
2022/12/26 13:55:40;;;;;;;7.38;6.88;;;;;;;;;;4961371;28;20047;-73
2022/12/26 13:58:20;;;;;;;8.15;7.65;;;;;;;;;;4962394;28;20495;-74
2022/12/26 14:00:47;;;;;;;7.97;7.47;;;;;;;;;;4962759;28;20043;-75
2022/12/26 14:03:39;;;;;;;8.05;7.47;;;;;;;;;;4952660;28;20043;-74
2022/12/26 14:06:47;;;;;;;8.43;7.93;;;;;;;;;;4947166;28;20039;-74
2022/12/26 14:09:31;;;;;;;7.67;7.17;;;;;;;;;;4945474;28;20461;-74
2022/12/26 14:12:18;;;;;;;7.38;6.90;;;;;;;;;;4950991;28;20082;-73
2022/12/26 14:15:16;;;;;;;7.80;7.20;;;;;;;;;;4949795;28;20536;-74
2022/12/26 14:18:03;;;;;;;8.13;7.55;;;;;;;;;;4947223;28;20067;-75
2022/12/26 14:20:38;;;;;;;8.25;7.70;;;;;;;;;;4951366;28;20074;-75
2022/12/26 14:23:40;;;;;;;8.77;8.13;;;;;;;;;;4950394;28;20074;-73
2022/12/26 14:26:27;;;;;;;8.23;7.63;;;;;;;;;;4945551;28;20051;-75
2022/12/26 14:29:11;;;;;;;7.75;7.25;;;;;;;;;;4945526;28;20395;-74
2022/12/26 14:31:44;;;;;;;8.15;7.55;;;;;;;;;;4964291;28;20047;-74
2022/12/26 14:34:38;;;;;;;6.80;6.40;;;;;;;;;;4948690;28;20118;-74
2022/12/26 14:37:20;;;;;;;7.93;7.43;;;;;;;;;;4944545;28;20110;-73
2022/12/26 14:40:13;;;;;;;8.18;7.68;;;;;;;;;;4944974;28;20051;-73
2022/12/26 14:43:16;;;;;;;9.38;8.68;;;;;;;;;;4947666;28;20043;-73
2022/12/26 14:45:41;;;;;;;8.75;8.05;;;;;;;;;;4961158;28;20038;-74
2022/12/26 14:48:16;;;;;;;8.75;8.05;;;;;;;;;;4952167;28;20031;-73
2022/12/26 14:50:48;;;;;;;7.85;7.20;;;;;;;;;;4947775;29;20051;-74
2022/12/26 14:53:26;;;;;;;7.97;7.47;;;;;;;;;;4946942;28;20498;-75
2022/12/26 14:56:15;;;;;;;7.80;7.22;;;;;;;;;;4947330;28;20039;-74
2022/12/26 14:59:10;;;;;;;8.95;8.15;;;;;;;;;;4949943;28;20449;-74
2022/12/26 15:01:36;;;;;;;8.93;8.20;;;;;;;;;;4956982;28;20086;-74
2022/12/26 15:04:07;;;;;;;8.18;7.57;;;;;;;;;;4949433;28;20334;-75
2022/12/26 15:06:51;;;;;;;9.15;8.25;;;;;;;;;;4947420;28;20175;-75
2022/12/26 15:09:38;;;;;;;7.70;7.20;;;;;;;;;;4956972;28;20035;-73
2022/12/26 15:13:03;;;;;;;8.05;7.53;;;;;;;;;;4946419;28;20341;-74
2022/12/26 15:15:31;;;;;;;7.25;6.80;;;;;;;;;;4916347;28;20173;-73
2022/12/26 15:18:15;;;;;;;11.70;10.55;;;;;;;;;;4946741;28;20494;-74
2022/12/26 15:21:19;;;;;;;7.40;6.90;;;;;;;;;;4948829;28;20039;-73
2022/12/26 15:24:17;;;;;;;6.57;6.18;;;;;;;;;;4945042;28;20371;-73
2022/12/26 15:27:12;;;;;;;8.60;7.90;;;;;;;;;;4953599;28;20257;-74
2022/12/26 15:30:15;;;;;;;8.98;8.07;;;;;;;;;;4946091;28;20039;-74
2022/12/26 15:32:50;;;;;;;9.18;8.38;;;;;;;;;;4944763;28;20213;-73
2022/12/26 15:35:33;;;;;;;7.38;6.95;;;;;;;;;;4948145;28;20095;-70
2022/12/26 15:38:14;;;;;;;7.03;6.53;;;;;;;;;;4948201;28;20409;-70
2022/12/26 15:40:50;;;;;;;8.60;7.90;;;;;;;;;;4945758;28;20043;-69
2022/12/26 15:43:34;;;;;;;7.25;6.80;;;;;;;;;;4945578;28;20031;-70
2022/12/26 15:46:18;;;;;;;8.05;7.45;;;;;;;;;;4948036;28;20557;-69
2022/12/26 15:49:15;;;;;;;7.97;7.38;;;;;;;;;;4941539;28;20627;-70
2022/12/26 15:51:46;;;;;;;11.13;10.23;;;;;;;;;;4947327;28;20043;-70
2022/12/26 15:54:23;;;;;;;8.57;7.97;;;;;;;;;;4947383;28;20117;-70
2022/12/26 15:56:54;;;;;;;8.43;7.82;;;;;;;;;;4944674;28;20038;-70
2022/12/26 15:59:38;;;;;;;6.78;6.38;;;;;;;;;;4946969;28;20051;-70
2022/12/26 16:02:31;;;;;;;8.05;7.45;;;;;;;;;;4961769;28;20470;-69
2022/12/26 16:05:09;;;;;;;8.18;7.43;;;;;;;;;;4948820;28;20031;-70
2022/12/26 16:07:44;;;;;;;8.00;7.22;;;;;;;;;;4943459;28;20031;-69
2022/12/26 16:10:32;;;;;;;8.38;7.72;;;;;;;;;;4946242;28;20031;-70
2022/12/26 16:13:13;;;;;;;7.80;7.30;;;;;;;;;;4947426;28;20062;-70
2022/12/26 16:15:57;;;;;;;8.88;8.27;;;;;;;;;;4946088;28;20250;-70
2022/12/26 16:18:28;;;;;;;7.97;7.47;;;;;;;;;;4943883;28;20055;-69
2022/12/26 16:23:44;;;;;;;9.10;8.40;;;;;;;;;;4945627;28;20074;-70
2022/12/26 16:26:41;;;;;;;8.98;8.18;;;;;;;;;;4944240;28;20178;-70
2022/12/26 16:29:08;;;;;;;11.40;10.00;;;;;;;;;;4941303;29;20051;-69
2022/12/26 16:31:34;;;;;;;8.77;8.15;;;;;;;;;;4941352;29;20051;-69
2022/12/26 16:34:00;;;;;;;14.13;10.77;;;;;;;;;;4943863;29;20549;-69
2022/12/26 16:36:28;;;;;;;12.65;9.88;;;;;;;;;;4938846;28;20079;-70
2022/12/26 16:38:54;;;;;;;11.43;10.15;;;;;;;;;;4937900;29;20293;-70
2022/12/26 16:41:21;;;;;;;10.15;9.30;;;;;;;;;;4921398;29;20541;-70
2022/12/26 16:43:48;;;;;;;14.07;10.80;;;;;;;;;;4939398;28;20074;-69
2022/12/26 16:46:17;;;;;;;10.80;9.73;;;;;;;;;;4943026;29;20051;-70
2022/12/26 16:48:47;;;;;;;9.57;8.73;;;;;;;;;;4943391;29;20047;-70
2022/12/26 16:51:47;;;;;;;11.73;10.52;;;;;;;;;;4943458;29;20035;-70
2022/12/26 16:54:19;;;;;;;9.05;8.35;;;;;;;;;;4938744;28;20050;-69
2022/12/26 16:56:56;;;;;;;8.80;8.07;;;;;;;;;;4943353;29;20087;-69
2022/12/26 16:59:24;;;;;;;9.90;9.00;;;;;;;;;;4927142;29;20304;-69
2022/12/26 17:01:53;;;;;;;9.18;8.27;;;;;;;;;;4939349;28;20391;-69
2022/12/26 17:04:24;;;;;;;8.52;7.85;;;;;;;;;;4942440;29;20054;-70
2022/12/26 17:06:57;;;;;;;9.88;8.88;;;;;;;;;;4946413;28;20089;-69
2022/12/26 17:09:25;;;;;;;10.23;9.05;;;;;;;;;;4946002;28;20039;-69
2022/12/26 17:12:07;;;;;;;10.13;9.23;;;;;;;;;;4944665;28;20443;-69
2022/12/26 17:14:36;;;;;;;9.70;8.90;;;;;;;;;;4943465;28;20067;-70
2022/12/26 17:17:24;;;;;;;12.07;10.90;;;;;;;;;;4938861;28;20039;-69
2022/12/26 17:19:53;;;;;;;9.77;9.05;;;;;;;;;;4945594;28;20043;-71
2022/12/26 17:22:18;;;;;;;8.20;7.60;;;;;;;;;;4946614;28;20530;-70
2022/12/26 17:24:46;;;;;;;7.53;7.03;;;;;;;;;;4943678;28;20491;-69
2022/12/26 17:27:22;;;;;;;7.22;6.82;;;;;;;;;;4943900;28;20035;-69
2022/12/26 17:29:49;;;;;;;8.30;7.78;;;;;;;;;;4946329;28;20066;-69